createdAt,value
2018-12-04T00:00:14.966Z,519.93
2018-12-04T00:02:44.381Z,497.20
2018-12-04T00:05:13.671Z,521.13
2018-12-04T00:07:43.247Z,511.30
2018-12-04T00:10:13.140Z,499.00
2018-12-04T00:12:42.700Z,492.50
2018-12-04T00:15:12.562Z,499.50
2018-12-04T00:17:42.124Z,481.63
2018-12-04T00:20:12.305Z,539.27
2018-12-04T00:22:41.764Z,442.17
2018-12-04T00:25:11.414Z,423.20
2018-12-04T00:27:40.976Z,401.77
2018-12-04T00:30:10.748Z,392.87
2018-12-04T00:32:40.792Z,349.20
2018-12-04T00:35:10.406Z,369.53
2018-12-04T00:37:40.012Z,337.73
2018-12-04T00:40:10.204Z,397.33
2018-12-04T00:42:39.644Z,426.40
2018-12-04T00:45:10.355Z,349.73
2018-12-04T00:47:39.883Z,433.27
2018-12-04T00:50:09.599Z,347.93
2018-12-04T00:52:39.338Z,358.13
2018-12-04T00:55:08.879Z,350.70
2018-12-04T00:57:38.561Z,389.60
2018-12-04T01:00:10.005Z,343.50
2018-12-04T01:02:40.657Z,456.17
2018-12-04T01:05:10.164Z,299.37
2018-12-04T01:07:39.700Z,324.53
2018-12-04T01:10:09.200Z,373.77
2018-12-04T01:12:38.492Z,316.67
2018-12-04T01:15:08.213Z,330.30
2018-12-04T01:17:37.979Z,362.47
2018-12-04T01:20:07.609Z,316.63
2018-12-04T01:22:37.115Z,380.90
2018-12-04T01:25:07.117Z,378.83
2018-12-04T01:27:36.440Z,388.33
2018-12-04T01:30:07.105Z,369.17
2018-12-04T01:32:36.520Z,408.30
2018-12-04T01:35:06.374Z,407.43
2018-12-04T01:37:35.853Z,450.17
2018-12-04T01:40:05.914Z,460.80
2018-12-04T01:42:35.384Z,389.93
2018-12-04T01:45:05.911Z,427.60
2018-12-04T01:47:36.966Z,533.87
2018-12-04T01:50:06.472Z,471.97
2018-12-04T01:52:36.289Z,497.60
2018-12-04T01:55:06.142Z,444.83
2018-12-04T01:57:35.593Z,452.30
2018-12-04T02:00:05.526Z,437.63
2018-12-04T02:02:35.077Z,461.13
2018-12-04T02:05:04.702Z,420.30
2018-12-04T02:07:34.323Z,419.47
2018-12-04T02:10:04.869Z,491.87
2018-12-04T02:12:34.459Z,400.23
2018-12-04T02:15:04.696Z,371.87
2018-12-04T02:17:34.449Z,353.00
2018-12-04T02:20:03.942Z,376.83
2018-12-04T02:22:33.646Z,304.53
2018-12-04T02:25:03.336Z,293.33
2018-12-04T02:27:33.178Z,301.13
2018-12-04T02:30:03.391Z,319.67
2018-12-04T02:32:32.954Z,303.10
2018-12-04T02:35:02.829Z,335.00
2018-12-04T02:37:32.275Z,301.10
2018-12-04T02:40:01.975Z,335.20
2018-12-04T02:42:31.665Z,302.83
2018-12-04T02:45:01.218Z,330.07
2018-12-04T02:47:30.702Z,308.03
2018-12-04T02:50:00.524Z,332.63
2018-12-04T02:52:29.972Z,331.47
2018-12-04T02:54:59.776Z,281.87
2018-12-04T02:57:29.212Z,285.07
2018-12-04T02:59:58.763Z,288.40
2018-12-04T03:02:28.593Z,301.90
2018-12-04T03:04:58.079Z,320.53
2018-12-04T03:07:27.284Z,276.87
2018-12-04T03:09:56.906Z,321.37
2018-12-04T03:12:26.307Z,279.13
2018-12-04T03:14:55.800Z,304.87
2018-12-04T03:17:25.469Z,293.60
2018-12-04T03:19:54.980Z,287.00
2018-12-04T03:22:24.576Z,308.87
2018-12-04T03:24:54.099Z,292.50
2018-12-04T03:27:23.429Z,280.47
2018-12-04T03:29:53.077Z,315.93
2018-12-04T03:32:22.525Z,279.87
2018-12-04T03:34:52.188Z,339.00
2018-12-04T03:37:21.880Z,302.43
2018-12-04T03:39:51.278Z,329.77
2018-12-04T03:42:21.097Z,300.33
2018-12-04T03:44:50.382Z,302.47
2018-12-04T03:47:19.985Z,304.17
2018-12-04T03:49:49.803Z,315.57
2018-12-04T03:52:19.321Z,302.10
2018-12-04T03:54:48.766Z,305.43
2018-12-04T03:57:18.542Z,298.37
2018-12-04T03:59:47.929Z,273.93
2018-12-04T04:02:17.328Z,276.40
2018-12-04T04:04:47.379Z,316.43
2018-12-04T04:07:16.959Z,261.73
2018-12-04T04:09:46.673Z,283.90
2018-12-04T04:12:16.356Z,262.90
2018-12-04T04:14:45.855Z,275.33
2018-12-04T04:17:15.376Z,286.87
2018-12-04T04:19:51.555Z,249.73
2018-12-04T04:22:20.828Z,254.90
2018-12-04T04:24:50.205Z,261.07
2018-12-04T04:27:19.882Z,263.07
2018-12-04T04:29:49.331Z,259.47
2018-12-04T04:32:18.750Z,254.33
2018-12-04T04:34:48.607Z,253.23
2018-12-04T04:37:17.830Z,252.40
2018-12-04T04:39:47.405Z,265.27
2018-12-04T04:42:17.135Z,289.33
2018-12-04T04:44:46.619Z,266.97
2018-12-04T04:47:16.105Z,261.93
2018-12-04T04:49:46.060Z,267.83
2018-12-04T04:52:15.540Z,261.33
2018-12-04T04:54:44.843Z,282.30
2018-12-04T04:57:15.101Z,249.30
2018-12-04T04:59:44.721Z,258.83
2018-12-04T05:02:14.129Z,257.57
2018-12-04T05:04:44.251Z,254.40
2018-12-04T05:07:13.729Z,236.00
2018-12-04T05:09:43.169Z,244.00
2018-12-04T05:12:12.843Z,246.17
2018-12-04T05:14:42.325Z,246.47
2018-12-04T05:17:12.032Z,224.20
2018-12-04T05:19:41.570Z,234.97
2018-12-04T05:22:11.128Z,253.83
2018-12-04T05:24:40.531Z,229.13
2018-12-04T05:27:09.830Z,235.27
2018-12-04T05:29:39.700Z,220.40
2018-12-04T05:32:09.176Z,216.13
2018-12-04T05:34:38.794Z,199.60
2018-12-04T05:37:08.460Z,217.87
2018-12-04T05:39:37.847Z,232.10
2018-12-04T05:42:07.365Z,232.87
2018-12-04T05:44:36.836Z,245.53
2018-12-04T05:47:06.099Z,218.63
2018-12-04T05:49:35.918Z,187.27
2018-12-04T05:52:05.627Z,219.40
2018-12-04T05:54:35.165Z,211.53
2018-12-04T05:57:04.881Z,213.70
2018-12-04T05:59:34.148Z,224.73
2018-12-04T06:02:03.494Z,221.10
2018-12-04T06:04:34.334Z,249.63
2018-12-04T06:07:03.873Z,243.07
2018-12-04T06:09:33.324Z,244.37
2018-12-04T06:12:03.007Z,261.50
2018-12-04T06:14:32.616Z,250.70
2018-12-04T06:17:02.391Z,255.97
2018-12-04T06:19:32.235Z,243.87
2018-12-04T06:22:02.042Z,260.97
2018-12-04T06:24:31.907Z,268.90
2018-12-04T06:27:01.648Z,264.37
2018-12-04T06:29:31.524Z,250.93
2018-12-04T06:32:01.468Z,267.37
2018-12-04T06:34:31.126Z,267.80
2018-12-04T06:37:00.794Z,267.40
2018-12-04T06:39:30.309Z,257.03
2018-12-04T06:41:59.957Z,269.30
2018-12-04T06:44:30.545Z,273.33
2018-12-04T06:47:00.985Z,283.17
2018-12-04T06:49:30.673Z,272.50
2018-12-04T06:52:00.234Z,302.63
2018-12-04T06:54:29.693Z,284.97
2018-12-04T06:56:59.477Z,283.10
2018-12-04T06:59:29.120Z,277.43
2018-12-04T07:01:58.994Z,269.27
2018-12-04T07:04:28.458Z,262.63
2018-12-04T07:06:57.952Z,266.20
2018-12-04T07:09:27.292Z,269.90
2018-12-04T07:12:02.316Z,293.63
2018-12-04T07:14:28.189Z,316.37
2018-12-04T07:16:57.849Z,316.73
2018-12-04T07:19:27.383Z,329.47
2018-12-04T07:21:56.934Z,317.87
2018-12-04T07:24:26.144Z,298.07
2018-12-04T07:26:56.336Z,288.10
2018-12-04T07:29:25.920Z,264.40
2018-12-04T07:31:55.703Z,264.80
2018-12-04T07:34:25.403Z,247.67
2018-12-04T07:36:55.173Z,259.47
2018-12-04T07:39:25.070Z,237.60
2018-12-04T07:41:55.014Z,253.60
2018-12-04T07:44:24.544Z,259.50
2018-12-04T07:46:54.281Z,244.07
2018-12-04T07:49:24.233Z,253.00
2018-12-04T07:51:53.645Z,232.93
2018-12-04T07:54:23.076Z,235.27
2018-12-04T07:56:52.832Z,261.60
2018-12-04T07:59:22.244Z,229.00
2018-12-04T08:01:51.945Z,232.30
2018-12-04T08:04:21.629Z,230.87
2018-12-04T08:06:51.289Z,219.97
2018-12-04T08:09:21.085Z,220.30
2018-12-04T08:11:50.657Z,213.70
2018-12-04T08:14:20.170Z,247.37
2018-12-04T08:16:49.950Z,230.50
2018-12-04T08:19:19.521Z,233.53
2018-12-04T08:21:49.335Z,224.73
2018-12-04T08:24:18.848Z,246.50
2018-12-04T08:26:48.922Z,238.43
2018-12-04T08:29:19.061Z,231.07
2018-12-04T08:31:48.324Z,238.83
2018-12-04T08:34:18.689Z,234.87
2018-12-04T08:36:48.620Z,221.07
2018-12-04T08:39:18.213Z,249.33
2018-12-04T08:41:47.625Z,230.63
2018-12-04T08:44:17.666Z,219.10
2018-12-04T08:46:46.895Z,212.27
2018-12-04T08:49:16.160Z,199.87
2018-12-04T08:51:45.649Z,197.37
2018-12-04T08:54:15.121Z,207.37
2018-12-04T08:56:44.788Z,199.73
2018-12-04T08:59:14.236Z,226.70
2018-12-04T09:01:43.575Z,202.53
2018-12-04T09:04:13.218Z,209.23
2018-12-04T09:06:42.562Z,201.77
2018-12-04T09:09:12.629Z,199.20
2018-12-04T09:11:42.239Z,182.90
2018-12-04T09:14:11.691Z,182.33
2018-12-04T09:16:41.101Z,182.23
2018-12-04T09:19:11.132Z,189.53
2018-12-04T09:21:40.616Z,188.77
2018-12-04T09:24:10.485Z,196.53
2018-12-04T09:26:39.948Z,191.43
2018-12-04T09:29:09.240Z,194.57
2018-12-04T09:31:38.854Z,201.57
2018-12-04T09:34:08.687Z,192.37
2018-12-04T09:36:38.069Z,186.57
2018-12-04T09:39:08.523Z,188.00
2018-12-04T09:41:39.126Z,183.20
2018-12-04T09:44:08.460Z,184.63
2018-12-04T09:46:37.705Z,188.03
2018-12-04T09:49:07.315Z,206.30
2018-12-04T09:51:37.085Z,203.57
2018-12-04T09:54:06.527Z,198.77
2018-12-04T09:56:36.038Z,188.00
2018-12-04T09:59:05.664Z,193.30
2018-12-04T10:01:35.252Z,200.03
2018-12-04T10:04:04.863Z,190.23
2018-12-04T10:06:34.160Z,223.73
2018-12-04T10:09:03.933Z,210.33
2018-12-04T10:11:33.408Z,195.63
2018-12-04T10:14:03.133Z,205.03
2018-12-04T10:16:32.722Z,220.17
2018-12-04T10:19:02.856Z,187.63
2018-12-04T10:21:32.432Z,215.03
2018-12-04T10:24:01.980Z,200.97
2018-12-04T10:26:31.749Z,200.83
2018-12-04T10:29:01.270Z,187.20
2018-12-04T10:31:31.008Z,189.00
2018-12-04T10:34:00.453Z,191.13
2018-12-04T10:36:29.894Z,182.50
2018-12-04T10:38:59.509Z,188.20
2018-12-04T10:41:29.102Z,193.40
2018-12-04T10:43:58.622Z,201.23
2018-12-04T10:46:28.229Z,205.47
2018-12-04T10:48:57.632Z,198.27
2018-12-04T10:51:27.605Z,192.37
2018-12-04T10:53:57.410Z,194.47
2018-12-04T10:56:26.970Z,190.03
2018-12-04T10:58:56.356Z,185.97
2018-12-04T11:01:31.338Z,184.00
2018-12-04T11:04:00.887Z,203.20
2018-12-04T11:06:30.212Z,192.40
2018-12-04T11:08:59.844Z,186.33
2018-12-04T11:11:29.424Z,182.60
2018-12-04T11:13:59.155Z,199.73
2018-12-04T11:16:29.042Z,197.37
2018-12-04T11:18:58.698Z,193.87
2018-12-04T11:21:28.175Z,193.73
2018-12-04T11:23:57.512Z,218.57
2018-12-04T11:26:27.521Z,227.13
2018-12-04T11:28:57.148Z,214.47
2018-12-04T11:31:26.573Z,204.67
2018-12-04T11:33:55.986Z,212.23
2018-12-04T11:36:25.507Z,203.57
2018-12-04T11:38:55.247Z,213.87
2018-12-04T11:41:24.808Z,225.10
2018-12-04T11:43:54.320Z,231.73
2018-12-04T11:46:23.828Z,234.93
2018-12-04T11:48:53.214Z,241.73
2018-12-04T11:51:22.639Z,244.23
2018-12-04T11:53:52.584Z,246.23
2018-12-04T11:56:22.051Z,243.67
2018-12-04T11:58:51.505Z,247.07
2018-12-04T12:01:26.124Z,238.63
2018-12-04T12:03:55.581Z,234.23
2018-12-04T12:06:25.104Z,232.97
2018-12-04T12:08:54.653Z,261.73
2018-12-04T12:11:23.988Z,252.03
2018-12-04T12:13:53.609Z,235.67
2018-12-04T12:16:23.472Z,243.97
2018-12-04T12:18:52.922Z,246.93
2018-12-04T12:21:22.353Z,253.43
2018-12-04T12:23:52.137Z,244.47
2018-12-04T12:26:21.755Z,234.67
2018-12-04T12:28:51.083Z,254.07
2018-12-04T12:31:20.915Z,255.37
2018-12-04T12:33:50.480Z,252.63
2018-12-04T12:36:19.984Z,248.13
2018-12-04T12:38:49.277Z,248.30
2018-12-04T12:41:18.738Z,245.07
2018-12-04T12:43:48.289Z,242.10
2018-12-04T12:46:18.390Z,254.77
2018-12-04T12:48:47.774Z,259.17
2018-12-04T12:51:17.329Z,251.80
2018-12-04T12:53:46.858Z,255.83
2018-12-04T12:56:16.701Z,272.93
2018-12-04T12:58:46.099Z,278.43
2018-12-04T13:01:15.996Z,315.70
2018-12-04T13:03:45.411Z,319.20
2018-12-04T13:06:15.098Z,307.10
2018-12-04T13:08:44.834Z,319.23
2018-12-04T13:11:14.318Z,298.87
2018-12-04T13:13:43.818Z,296.00
2018-12-04T13:16:13.373Z,295.43
2018-12-04T13:18:42.957Z,286.83
2018-12-04T13:21:12.489Z,280.27
2018-12-04T13:23:42.332Z,267.70
2018-12-04T13:26:11.807Z,272.67
2018-12-04T13:28:41.346Z,276.97
2018-12-04T13:31:11.109Z,265.10
2018-12-04T13:33:40.667Z,244.43
2018-12-04T13:36:10.282Z,247.07
2018-12-04T13:38:39.632Z,260.97
2018-12-04T13:41:09.203Z,258.97
2018-12-04T13:43:38.607Z,277.40
2018-12-04T13:46:08.558Z,266.60
2018-12-04T13:48:38.282Z,277.23
2018-12-04T13:51:07.692Z,266.70
2018-12-04T13:53:37.528Z,247.53
2018-12-04T13:56:07.061Z,248.17
2018-12-04T13:58:36.991Z,264.27
2018-12-04T14:01:06.316Z,274.37
2018-12-04T14:03:35.870Z,270.47
2018-12-04T14:06:05.361Z,291.97
2018-12-04T14:08:35.029Z,311.60
2018-12-04T14:11:04.272Z,295.47
2018-12-04T14:13:34.019Z,281.57
2018-12-04T14:16:03.353Z,252.40
2018-12-04T14:18:32.768Z,268.20
2018-12-04T14:21:02.531Z,289.83
2018-12-04T14:23:31.929Z,309.63
2018-12-04T14:26:01.405Z,311.73
2018-12-04T14:28:31.832Z,298.63
2018-12-04T14:31:01.305Z,299.23
2018-12-04T14:33:30.902Z,291.93
2018-12-04T14:36:00.492Z,315.27
2018-12-04T14:38:30.161Z,334.97
2018-12-04T14:40:59.818Z,373.77
2018-12-04T14:43:29.410Z,383.17
2018-12-04T14:45:59.408Z,381.77
2018-12-04T14:48:28.914Z,372.67
2018-12-04T14:50:58.432Z,372.77
2018-12-04T14:53:28.006Z,375.70
2018-12-04T14:55:57.817Z,358.20
2018-12-04T14:58:27.274Z,357.90
2018-12-04T15:00:56.908Z,366.17
2018-12-04T15:03:26.669Z,392.67
2018-12-04T15:05:56.355Z,368.53
2018-12-04T15:08:26.142Z,392.80
2018-12-04T15:10:55.749Z,417.33
2018-12-04T15:13:26.013Z,402.83
2018-12-04T15:15:55.486Z,365.47
2018-12-04T15:18:25.414Z,367.17
2018-12-04T15:20:54.764Z,376.20
2018-12-04T15:23:24.221Z,346.00
2018-12-04T15:25:54.379Z,359.30
2018-12-04T15:28:23.882Z,398.13
2018-12-04T15:30:53.327Z,402.03
2018-12-04T15:33:22.772Z,384.23
2018-12-04T15:35:52.190Z,386.60
2018-12-04T15:38:21.787Z,400.40
2018-12-04T15:40:51.158Z,335.70
2018-12-04T15:43:20.649Z,365.70
2018-12-04T15:45:50.260Z,354.80
2018-12-04T15:48:19.851Z,386.10
2018-12-04T15:50:49.620Z,399.47
2018-12-04T15:53:19.289Z,374.83
2018-12-04T15:55:49.060Z,321.40
2018-12-04T15:58:18.487Z,327.33
2018-12-04T16:00:48.170Z,334.30
2018-12-04T16:03:17.575Z,331.93
2018-12-04T16:05:47.060Z,353.67
2018-12-04T16:08:17.242Z,326.27
2018-12-04T16:10:46.818Z,341.50
2018-12-04T16:13:17.589Z,327.83
2018-12-04T16:15:47.071Z,334.10
2018-12-04T16:18:16.606Z,333.90
2018-12-04T16:20:46.097Z,445.03
2018-12-04T16:23:16.005Z,358.20
2018-12-04T16:25:45.602Z,363.17
2018-12-04T16:28:15.241Z,358.50
2018-12-04T16:30:44.677Z,342.40
2018-12-04T16:33:14.228Z,340.73
2018-12-04T16:35:43.937Z,311.30
2018-12-04T16:38:13.249Z,333.27
2018-12-04T16:40:42.730Z,339.93
2018-12-04T16:43:12.466Z,325.03
2018-12-04T16:45:41.995Z,327.13
2018-12-04T16:48:11.452Z,362.00
2018-12-04T16:50:41.161Z,376.10
2018-12-04T16:53:10.957Z,370.67
2018-12-04T16:55:40.604Z,366.80
2018-12-04T16:58:10.525Z,385.60
2018-12-04T17:00:40.005Z,365.23
2018-12-04T17:03:09.889Z,341.10
2018-12-04T17:05:39.257Z,364.97
2018-12-04T17:08:09.180Z,356.83
2018-12-04T17:10:38.999Z,346.83
2018-12-04T17:13:08.779Z,338.73
2018-12-04T17:15:38.333Z,363.00
2018-12-04T17:18:08.102Z,375.23
2018-12-04T17:20:37.937Z,421.93
2018-12-04T17:23:07.394Z,459.47
2018-12-04T17:25:37.161Z,439.77
2018-12-04T17:28:06.867Z,443.83
2018-12-04T17:30:36.256Z,436.40
2018-12-04T17:33:05.928Z,447.70
2018-12-04T17:35:35.499Z,489.90
2018-12-04T17:38:04.804Z,494.17
2018-12-04T17:40:34.634Z,494.83
2018-12-04T17:43:04.302Z,556.80
2018-12-04T17:45:33.906Z,592.50
2018-12-04T17:48:03.683Z,595.07
2018-12-04T17:50:33.419Z,537.53
2018-12-04T17:53:02.889Z,539.47
2018-12-04T17:55:32.984Z,545.97
2018-12-04T17:58:04.302Z,521.00
2018-12-04T18:00:34.336Z,464.37
2018-12-04T18:03:03.635Z,412.77
2018-12-04T18:05:34.576Z,392.03
2018-12-04T18:08:04.161Z,372.60
2018-12-04T18:10:33.531Z,362.23
2018-12-04T18:13:03.066Z,388.83
2018-12-04T18:15:34.571Z,369.67
2018-12-04T18:18:05.384Z,362.80
2018-12-04T18:20:34.941Z,381.80
2018-12-04T18:23:04.490Z,378.47
2018-12-04T18:25:34.326Z,432.40
2018-12-04T18:28:03.732Z,423.50
2018-12-04T18:30:33.648Z,419.30
2018-12-04T18:33:02.978Z,410.20
2018-12-04T18:35:32.440Z,439.10
2018-12-04T18:38:02.296Z,433.97
2018-12-04T18:40:32.191Z,471.87
2018-12-04T18:43:01.542Z,469.40
2018-12-04T18:45:32.727Z,455.10
2018-12-04T18:48:02.396Z,467.17
2018-12-04T18:50:32.242Z,462.47
2018-12-04T18:53:01.780Z,446.00
2018-12-04T18:55:31.324Z,435.80
2018-12-04T18:58:00.585Z,422.63
2018-12-04T19:00:30.057Z,437.17
2018-12-04T19:02:59.740Z,441.03
2018-12-04T19:05:29.320Z,474.43
2018-12-04T19:07:58.647Z,486.60
2018-12-04T19:10:28.588Z,459.10
2018-12-04T19:12:58.171Z,470.53
2018-12-04T19:15:27.960Z,480.50
2018-12-04T19:17:57.718Z,491.70
2018-12-04T19:20:26.930Z,511.73
2018-12-04T19:22:56.453Z,538.47
2018-12-04T19:25:26.125Z,525.23
2018-12-04T19:27:55.545Z,513.03
2018-12-04T19:30:25.489Z,511.37
2018-12-04T19:32:54.935Z,591.20
2018-12-04T19:35:24.376Z,542.83
2018-12-04T19:37:55.694Z,477.37
2018-12-04T19:40:25.298Z,449.47
2018-12-04T19:42:55.143Z,451.33
2018-12-04T19:45:24.629Z,448.63
2018-12-04T19:47:53.978Z,456.63
2018-12-04T19:50:23.746Z,443.20
2018-12-04T19:52:53.237Z,465.30
2018-12-04T19:55:22.800Z,450.43
2018-12-04T19:57:52.331Z,442.57
2018-12-04T20:00:21.962Z,458.70
2018-12-04T20:02:51.341Z,465.87
2018-12-04T20:05:21.292Z,481.17
2018-12-04T20:07:50.780Z,470.67
2018-12-04T20:10:20.187Z,460.97
2018-12-04T20:12:49.644Z,471.93
2018-12-04T20:15:19.045Z,457.37
2018-12-04T20:17:48.818Z,451.90
2018-12-04T20:20:18.181Z,412.93
2018-12-04T20:22:47.841Z,412.50
2018-12-04T20:25:17.412Z,457.07
2018-12-04T20:27:47.252Z,450.30
2018-12-04T20:30:16.998Z,432.33
2018-12-04T20:32:46.188Z,430.37
2018-12-04T20:35:16.116Z,457.47
2018-12-04T20:37:45.536Z,457.93
2018-12-04T20:40:14.972Z,478.33
2018-12-04T20:42:44.874Z,481.33
2018-12-04T20:45:15.287Z,471.43
2018-12-04T20:47:45.156Z,472.33
2018-12-04T20:50:14.731Z,479.40
2018-12-04T20:52:44.127Z,477.00
2018-12-04T20:55:13.517Z,477.87
2018-12-04T20:57:42.827Z,473.57
2018-12-04T21:00:13.260Z,477.67
2018-12-04T21:02:42.533Z,481.83
2018-12-04T21:05:11.946Z,462.07
2018-12-04T21:07:41.848Z,463.13
2018-12-04T21:10:11.169Z,465.23
2018-12-04T21:12:40.576Z,495.73
2018-12-04T21:15:10.449Z,502.47
2018-12-04T21:17:39.690Z,501.80
2018-12-04T21:20:09.221Z,515.23
2018-12-04T21:22:38.709Z,524.33
2018-12-04T21:25:08.012Z,515.13
2018-12-04T21:27:43.135Z,528.20
2018-12-04T21:30:17.954Z,543.83
2018-12-04T21:32:52.680Z,496.50
2018-12-04T21:35:27.297Z,485.60
2018-12-04T21:38:02.178Z,471.70
2018-12-04T21:41:07.772Z,470.20
2018-12-04T21:43:42.572Z,601.13
2018-12-04T21:46:17.219Z,577.07
2018-12-04T21:48:47.631Z,581.87
2018-12-04T21:51:16.919Z,576.33
2018-12-04T21:53:46.322Z,559.60
2018-12-04T21:56:16.147Z,554.73
2018-12-04T21:58:45.903Z,551.90
2018-12-04T22:01:15.327Z,562.17
2018-12-04T22:03:45.288Z,566.13
2018-12-04T22:06:14.756Z,577.43
2018-12-04T22:08:44.328Z,571.90
2018-12-04T22:11:14.209Z,586.07
2018-12-04T22:13:43.593Z,590.13
2018-12-04T22:16:13.316Z,582.40
2018-12-04T22:18:42.588Z,593.70
2018-12-04T22:21:12.090Z,577.83
2018-12-04T22:23:41.400Z,551.50
2018-12-04T22:26:10.817Z,546.07
2018-12-04T22:28:40.365Z,530.63
2018-12-04T22:31:09.968Z,534.87
2018-12-04T22:33:39.441Z,534.97
2018-12-04T22:36:09.328Z,533.37
2018-12-04T22:38:38.797Z,541.03
2018-12-04T22:41:08.300Z,520.20
2018-12-04T22:43:37.892Z,532.97
2018-12-04T22:46:07.325Z,551.40
2018-12-04T22:48:36.885Z,534.23
2018-12-04T22:51:06.525Z,527.83
2018-12-04T22:53:35.956Z,519.10
2018-12-04T22:56:05.571Z,515.43
2018-12-04T22:58:34.973Z,520.13
2018-12-04T23:01:04.549Z,511.70
2018-12-04T23:03:35.888Z,511.20
2018-12-04T23:06:05.571Z,500.47
2018-12-04T23:08:35.412Z,495.60
2018-12-04T23:11:05.027Z,502.40
2018-12-04T23:13:34.482Z,519.43
2018-12-04T23:16:04.170Z,524.80
2018-12-04T23:18:33.887Z,525.87
2018-12-04T23:21:03.388Z,517.57
2018-12-04T23:23:32.920Z,532.77
2018-12-04T23:26:02.377Z,522.33
2018-12-04T23:28:33.264Z,523.47
2018-12-04T23:31:02.545Z,535.30
2018-12-04T23:33:31.857Z,523.83
2018-12-04T23:36:01.634Z,517.20
2018-12-04T23:38:31.076Z,530.90
2018-12-04T23:41:00.379Z,546.00
2018-12-04T23:43:29.864Z,518.13
2018-12-04T23:45:59.284Z,527.27
2018-12-04T23:48:28.962Z,513.20
2018-12-04T23:50:58.458Z,561.90
2018-12-04T23:53:28.232Z,566.20
2018-12-04T23:55:57.692Z,540.47
2018-12-04T23:58:27.498Z,539.97
